createdAt,value
2023-01-18T00:08:52.775Z,24.30
2023-01-18T00:15:24.418Z,20.73
2023-01-18T00:18:33.996Z,16.33
2023-01-18T00:26:42.209Z,26.70
2023-01-18T00:29:10.381Z,21.42
2023-01-18T00:31:37.491Z,27.48
2023-01-18T00:37:41.323Z,18.75
2023-01-18T00:43:33.090Z,20.83
2023-01-18T00:49:27.175Z,15.63
2023-01-18T00:51:53.664Z,19.58
2023-01-18T00:54:20.036Z,21.87
2023-01-18T00:56:46.658Z,22.00
2023-01-18T00:59:13.225Z,23.63
2023-01-18T01:01:40.120Z,26.77
2023-01-18T01:04:25.467Z,20.38
2023-01-18T01:06:51.991Z,27.85
2023-01-18T01:09:20.164Z,24.05
2023-01-18T01:12:06.155Z,25.48
2023-01-18T01:14:52.632Z,25.98
2023-01-18T01:17:38.174Z,25.37
2023-01-18T01:20:23.980Z,19.23
2023-01-18T01:23:09.172Z,21.63
2023-01-18T01:25:58.173Z,20.83
2023-01-18T01:28:27.330Z,19.65
2023-01-18T01:30:56.850Z,23.20
2023-01-18T01:33:23.319Z,19.63
2023-01-18T01:35:50.161Z,34.42
2023-01-18T01:38:16.578Z,25.42
2023-01-18T01:41:01.466Z,33.35
2023-01-18T01:51:23.041Z,28.90
2023-01-18T01:54:01.108Z,25.63
2023-01-18T01:57:05.576Z,33.53
2023-01-18T01:59:58.067Z,22.17
2023-01-18T02:02:42.093Z,22.42
2023-01-18T02:05:39.612Z,20.83
2023-01-18T02:08:44.155Z,28.17
2023-01-18T02:15:07.494Z,22.92
2023-01-18T02:20:46.808Z,21.93
2023-01-18T02:23:25.841Z,21.75
2023-01-18T02:26:11.529Z,24.37
2023-01-18T02:28:51.938Z,19.80
2023-01-18T02:31:33.811Z,22.40
2023-01-18T02:37:21.956Z,34.13
2023-01-18T02:40:12.492Z,27.33
2023-01-18T02:49:52.318Z,30.40
2023-01-18T03:12:12.333Z,28.60
2023-01-18T03:18:04.228Z,37.85
2023-01-18T03:21:12.156Z,33.33
2023-01-18T03:24:24.213Z,31.35
2023-01-18T03:30:53.255Z,26.33
2023-01-18T03:33:45.700Z,35.20
2023-01-18T03:36:41.679Z,32.53
2023-01-18T03:39:52.393Z,27.20
2023-01-18T03:46:02.273Z,37.33
2023-01-18T03:55:41.073Z,41.75
2023-01-18T03:58:59.065Z,42.88
2023-01-18T09:09:29.423Z,31.95
2023-01-18T09:12:51.595Z,31.95
2023-01-18T09:16:16.103Z,32.58
2023-01-18T09:19:12.471Z,31.75
2023-01-18T09:21:42.012Z,31.45
2023-01-18T09:24:08.832Z,33.63
2023-01-18T09:26:40.123Z,30.42
2023-01-18T09:29:06.850Z,32.80
2023-01-18T09:31:36.009Z,28.52
2023-01-18T09:34:19.036Z,31.35
2023-01-18T09:36:56.075Z,29.58
2023-01-18T09:39:51.358Z,35.90
2023-01-18T09:45:47.880Z,36.22
2023-01-18T09:48:26.185Z,32.78
2023-01-18T09:50:58.340Z,31.30
2023-01-18T09:53:24.715Z,37.28
2023-01-18T09:55:54.460Z,31.15
2023-01-18T09:58:35.069Z,34.45
2023-01-18T10:01:06.007Z,34.63
2023-01-18T10:03:45.072Z,38.33
2023-01-18T10:06:15.655Z,38.53
2023-01-18T10:08:48.273Z,37.35
2023-01-18T10:11:37.398Z,38.47
2023-01-18T10:21:00.899Z,30.08
